KWJF/WJF METAR and TAF weather

Enter ICAO airport designator
Station Type Date Time Source
KWJF METAR 2022/05/23 13:56 UTC NOAA

KWJF 231356Z 28013KT 10SM CLR 21/01 A2994 RMK AO2 SLP121 T02060011


Station Type Date Time Source
KWJF Decoded METAR 2022/05/23 13:56 UTC NOAA

LANCASTER FOX AIRFIELD, CA, United States (KWJF) 34-44N 118-13W
May 23, 2022 - 09:56 AM EDT / 2022.05.23 1356 UTC
Wind: from the W (280 degrees) at 15 MPH (13 KT):0
Visibility: 10 mile(s):0
Sky conditions: clear
Temperature: 69.1 F (20.6 C)
Dew Point: 34.0 F (1.1 C)
Relative Humidity: 27%
Pressure (altimeter): 29.94 in. Hg (1013 hPa)
ob: KWJF 231356Z 28013KT 10SM CLR 21/01 A2994 RMK AO2 SLP121 T02060011
cycle: 14

Station Type Date Time Source
KWJF TAF 2022/05/23 12:42 UTC NOAA

TAF KWJF 231139Z 2312/2412 VRB05KT P6SM SKC
FM232100 30012G20KT P6SM SKC
FM240300 27015G23KT P6SM SKC
FM240600 26010KT P6SM FEW250

Example: see airport list